createdAt,value
2023-03-04T00:00:01.402Z,102650
2023-03-04T00:05:00.345Z,102650
2023-03-04T00:10:00.355Z,102660
2023-03-04T00:15:00.374Z,102660
2023-03-04T00:20:00.333Z,102660
2023-03-04T00:25:00.369Z,102660
2023-03-04T00:30:00.346Z,102650
2023-03-04T00:35:00.285Z,102650
2023-03-04T00:40:00.380Z,102650
2023-03-04T00:45:00.392Z,102650
2023-03-04T00:50:00.388Z,102660
2023-03-04T00:55:00.354Z,102660
2023-03-04T01:00:00.646Z,102650
2023-03-04T01:05:00.380Z,102650
2023-03-04T01:10:00.381Z,102650
2023-03-04T01:15:00.357Z,102650
2023-03-04T01:20:00.375Z,102650
2023-03-04T01:25:00.412Z,102650
2023-03-04T01:30:00.323Z,102640
2023-03-04T01:35:00.402Z,102640
2023-03-04T01:40:00.484Z,102640
2023-03-04T01:45:01.092Z,102630
2023-03-04T01:50:03.690Z,102620
2023-03-04T01:55:00.344Z,102620
2023-03-04T02:00:16.733Z,102610
2023-03-04T02:05:00.385Z,102600
2023-03-04T02:10:00.376Z,102610
2023-03-04T02:15:00.466Z,102600
2023-03-04T02:20:11.516Z,102590
2023-03-04T02:25:06.118Z,102590
2023-03-04T02:30:00.332Z,102590
2023-03-04T02:35:00.482Z,102580
2023-03-04T02:40:00.417Z,102580
2023-03-04T02:45:00.386Z,102580
2023-03-04T02:50:00.376Z,102570
2023-03-04T02:55:00.339Z,102570
2023-03-04T03:00:00.516Z,102570
2023-03-04T03:05:00.500Z,102570
2023-03-04T03:10:00.728Z,102570
2023-03-04T03:15:00.348Z,102560
2023-03-04T03:20:00.304Z,102560
2023-03-04T03:25:00.315Z,102550
2023-03-04T03:30:00.656Z,102550
2023-03-04T03:35:00.341Z,102540
2023-03-04T03:40:00.494Z,102540
2023-03-04T03:45:00.345Z,102540
2023-03-04T03:50:00.338Z,102550
2023-03-04T03:55:01.775Z,102550
2023-03-04T04:00:00.805Z,102550
2023-03-04T04:05:00.281Z,102550
2023-03-04T04:10:00.322Z,102550
2023-03-04T04:15:00.321Z,102550
2023-03-04T04:20:00.295Z,102550
2023-03-04T04:25:00.319Z,102550
2023-03-04T04:30:00.324Z,102550
2023-03-04T04:35:00.298Z,102550
2023-03-04T04:40:00.338Z,102550
2023-03-04T04:45:00.289Z,102550
2023-03-04T04:50:00.327Z,102550
2023-03-04T04:55:00.308Z,102560
2023-03-04T05:00:00.630Z,102560
2023-03-04T05:05:00.277Z,102550
2023-03-04T05:10:00.451Z,102550
2023-03-04T05:15:00.338Z,102550
2023-03-04T05:20:00.299Z,102560
2023-03-04T05:25:00.362Z,102560
2023-03-04T05:30:00.354Z,102560
2023-03-04T05:35:00.323Z,102550
2023-03-04T05:40:00.375Z,102560
2023-03-04T05:45:00.330Z,102560
2023-03-04T05:50:00.309Z,102560
2023-03-04T05:55:00.356Z,102560
2023-03-04T06:00:00.560Z,102560
2023-03-04T06:05:00.524Z,102560
2023-03-04T06:10:00.333Z,102560
2023-03-04T06:15:00.328Z,102560
2023-03-04T06:20:00.414Z,102570
2023-03-04T06:25:00.501Z,102580
2023-03-04T06:30:00.392Z,102570
2023-03-04T06:35:00.312Z,102570
2023-03-04T06:40:00.335Z,102570
2023-03-04T06:45:00.394Z,102570
2023-03-04T06:50:00.436Z,102580
2023-03-04T06:55:00.428Z,102570
2023-03-04T07:00:00.802Z,102580
2023-03-04T07:05:00.279Z,102580
2023-03-04T07:10:00.766Z,102580
2023-03-04T07:15:00.385Z,102580
2023-03-04T07:20:00.372Z,102580
2023-03-04T07:25:00.486Z,102580
2023-03-04T07:30:01.346Z,102590
2023-03-04T07:35:00.694Z,102590
2023-03-04T07:40:00.399Z,102590
2023-03-04T07:45:00.298Z,102600
2023-03-04T07:50:00.350Z,102600
2023-03-04T07:55:00.363Z,102610
2023-03-04T08:00:00.461Z,102610
2023-03-04T08:05:00.301Z,102610
2023-03-04T08:10:00.407Z,102620
2023-03-04T08:15:00.315Z,102620
2023-03-04T08:20:00.339Z,102620
2023-03-04T08:25:00.290Z,102620
2023-03-04T08:30:00.304Z,102620
2023-03-04T08:35:00.409Z,102620
2023-03-04T08:40:01.514Z,102630
2023-03-04T08:45:00.300Z,102620
2023-03-04T08:50:00.331Z,102630
2023-03-04T08:55:00.483Z,102630
2023-03-04T09:00:00.478Z,102620
2023-03-04T09:05:00.285Z,102620
2023-03-04T09:10:00.381Z,102610
2023-03-04T09:15:10.789Z,102610
2023-03-04T09:20:02.446Z,102610
2023-03-04T09:25:00.346Z,102600
2023-03-04T09:30:00.424Z,102600
2023-03-04T09:35:00.348Z,102590
2023-03-04T09:40:01.202Z,102600
2023-03-04T09:45:02.338Z,102600
2023-03-04T09:50:05.076Z,102610
2023-03-04T09:55:10.266Z,102600
2023-03-04T10:00:08.886Z,102600
2023-03-04T10:05:04.819Z,102600
2023-03-04T10:10:09.151Z,102600
2023-03-04T10:15:04.458Z,102600
2023-03-04T10:20:05.822Z,102600
2023-03-04T10:25:15.285Z,102600
2023-03-04T10:30:00.356Z,102590
2023-03-04T10:35:00.293Z,102590
2023-03-04T10:40:00.459Z,102580
2023-03-04T10:45:00.283Z,102580
2023-03-04T10:50:04.470Z,102580
2023-03-04T10:55:14.411Z,102570
2023-03-04T11:00:03.838Z,102570
2023-03-04T11:05:20.198Z,102560
2023-03-04T11:10:19.575Z,102560
2023-03-04T11:15:01.119Z,102550
2023-03-04T11:20:11.398Z,102540
2023-03-04T11:25:05.581Z,102540
2023-03-04T11:30:20.155Z,102540
2023-03-04T11:35:05.530Z,102540
2023-03-04T11:40:09.774Z,102540
2023-03-04T11:45:00.366Z,102530
2023-03-04T11:50:11.267Z,102520
2023-03-04T11:55:07.745Z,102520
2023-03-04T12:00:11.425Z,102510
2023-03-04T12:05:20.852Z,102510
2023-03-04T12:10:11.254Z,102510
2023-03-04T12:15:13.758Z,102510
2023-03-04T12:20:13.518Z,102500
2023-03-04T12:25:20.462Z,102500
2023-03-04T12:30:14.918Z,102500
2023-03-04T12:35:18.456Z,102490
2023-03-04T12:40:11.461Z,102490
2023-03-04T12:45:01.310Z,102480
2023-03-04T12:50:20.205Z,102470
2023-03-04T12:55:06.918Z,102470
2023-03-04T13:00:13.511Z,102460
2023-03-04T13:05:13.497Z,102450
2023-03-04T13:10:09.592Z,102460
2023-03-04T13:15:07.647Z,102450
2023-03-04T13:20:19.448Z,102460
2023-03-04T13:25:20.199Z,102450
2023-03-04T13:30:00.459Z,102440
2023-03-04T13:35:00.297Z,102430
2023-03-04T13:40:20.586Z,102430
2023-03-04T13:45:00.601Z,102420
2023-03-04T13:50:20.183Z,102420
2023-03-04T13:55:20.188Z,102420
2023-03-04T14:00:00.770Z,102410
2023-03-04T14:05:00.785Z,102410
2023-03-04T14:10:05.451Z,102420
2023-03-04T14:15:04.285Z,102420
2023-03-04T14:20:00.460Z,102420
2023-03-04T14:25:04.236Z,102420
2023-03-04T14:30:04.430Z,102430
2023-03-04T14:35:06.935Z,102410
2023-03-04T14:40:01.220Z,102410
2023-03-04T14:45:01.020Z,102410
2023-03-04T14:50:02.615Z,102400
2023-03-04T14:55:12.559Z,102410
2023-03-04T15:00:14.947Z,102400
2023-03-04T15:05:16.541Z,102400
2023-03-04T15:10:03.990Z,102400
2023-03-04T15:15:03.761Z,102390
2023-03-04T15:20:12.826Z,102400
2023-03-04T15:25:00.466Z,102390
2023-03-04T15:30:00.357Z,102390
2023-03-04T15:35:00.405Z,102380
2023-03-04T15:40:01.650Z,102380
2023-03-04T15:45:00.299Z,102380
2023-03-04T15:50:00.361Z,102380
2023-03-04T15:55:00.336Z,102390
2023-03-04T16:00:01.764Z,102390
2023-03-04T16:05:00.310Z,102380
2023-03-04T16:10:05.930Z,102380
2023-03-04T16:15:00.441Z,102380
2023-03-04T16:20:00.299Z,102370
2023-03-04T16:25:01.134Z,102370
2023-03-04T16:30:00.318Z,102370
2023-03-04T16:35:00.295Z,102370
2023-03-04T16:40:00.617Z,102370
2023-03-04T16:45:00.301Z,102370
2023-03-04T16:50:00.346Z,102370
2023-03-04T16:55:00.308Z,102370
2023-03-04T17:00:00.526Z,102370
2023-03-04T17:05:00.380Z,102370
2023-03-04T17:10:00.294Z,102370
2023-03-04T17:15:00.339Z,102360
2023-03-04T17:20:00.297Z,102370
2023-03-04T17:25:00.466Z,102370
2023-03-04T17:30:00.336Z,102370
2023-03-04T17:35:00.359Z,102370
2023-03-04T17:40:02.730Z,102370
2023-03-04T17:45:00.306Z,102380
2023-03-04T17:50:00.300Z,102380
2023-03-04T17:55:00.283Z,102380
2023-03-04T18:00:01.523Z,102390
2023-03-04T18:05:02.003Z,102390
2023-03-04T18:10:00.442Z,102400
2023-03-04T18:15:00.309Z,102400
2023-03-04T18:20:00.396Z,102390
2023-03-04T18:25:00.305Z,102400
2023-03-04T18:30:00.389Z,102400
2023-03-04T18:35:00.617Z,102400
2023-03-04T18:40:00.377Z,102400
2023-03-04T18:45:00.290Z,102400
2023-03-04T18:50:00.321Z,102410
2023-03-04T18:55:00.385Z,102400
2023-03-04T19:00:03.190Z,102400
2023-03-04T19:05:06.326Z,102390
2023-03-04T19:10:00.353Z,102390
2023-03-04T19:15:00.298Z,102390
2023-03-04T19:20:01.958Z,102390
2023-03-04T19:25:00.334Z,102390
2023-03-04T19:30:00.585Z,102380
2023-03-04T19:35:00.341Z,102380
2023-03-04T19:40:00.308Z,102390
2023-03-04T19:45:00.304Z,102380
2023-03-04T19:50:00.353Z,102380
2023-03-04T19:55:00.426Z,102370
2023-03-04T20:00:00.884Z,102380
2023-03-04T20:05:00.594Z,102380
2023-03-04T20:10:00.403Z,102370
2023-03-04T20:15:00.288Z,102380
2023-03-04T20:20:00.343Z,102390
2023-03-04T20:25:00.297Z,102390
2023-03-04T20:30:03.332Z,102390
2023-03-04T20:35:00.290Z,102380
2023-03-04T20:40:00.295Z,102380
2023-03-04T20:45:00.310Z,102390
2023-03-04T20:50:00.316Z,102390
2023-03-04T20:55:00.287Z,102390
2023-03-04T21:00:00.569Z,102390
2023-03-04T21:05:00.289Z,102390
2023-03-04T21:10:01.171Z,102390
2023-03-04T21:15:00.371Z,102380
2023-03-04T21:20:00.316Z,102370
2023-03-04T21:25:00.279Z,102370
2023-03-04T21:30:00.337Z,102370
2023-03-04T21:35:00.392Z,102360
2023-03-04T21:40:00.303Z,102360
2023-03-04T21:45:00.375Z,102360
2023-03-04T21:50:00.351Z,102350
2023-03-04T21:55:00.358Z,102340
2023-03-04T22:00:00.608Z,102340
2023-03-04T22:05:00.364Z,102340
2023-03-04T22:10:00.445Z,102340
2023-03-04T22:15:00.319Z,102340
2023-03-04T22:20:00.351Z,102340
2023-03-04T22:25:00.392Z,102330
2023-03-04T22:30:00.391Z,102330
2023-03-04T22:35:00.347Z,102330
2023-03-04T22:40:00.384Z,102320
2023-03-04T22:45:00.539Z,102330
2023-03-04T22:50:00.344Z,102320
2023-03-04T22:55:00.431Z,102320
2023-03-04T23:00:01.495Z,102320
2023-03-04T23:05:00.356Z,102310
2023-03-04T23:10:00.743Z,102310
2023-03-04T23:15:00.545Z,102300
2023-03-04T23:20:00.382Z,102300
2023-03-04T23:25:00.369Z,102290
2023-03-04T23:30:00.391Z,102280
2023-03-04T23:35:00.380Z,102280
2023-03-04T23:40:00.521Z,102280
2023-03-04T23:45:00.374Z,102280
2023-03-04T23:50:00.392Z,102280
2023-03-04T23:55:00.369Z,102280
